Strona główna
METAR-TAF:

METAR-TAF

Lotnisko :

Medan, Sumatra Północna, Indonezja

Szerokość geograficzna: 03-34N, Długość geograficzna: 098-41E, wysokość: 25 m

Aktualna obserwacja pogody

Raport powstał 43 minut temu, godzina 08:30 UTC
Wiatr 6 kt od wschód, zmienny między północny wschód i wschód
Temperatura 30°C
Wilgotność 75%
Ciśnienie 1007 hPa
Widzialność 10 km lub więcej
Rozproszone chmury na wysokości 1700 ft

METAR: WIMM 040830Z 08006KT 040V100 9999 SCT017 30/25 Q1007 NOSIG

czas: 16:13 (09:13 UTC)

Prognoza

Raport powstał 4 godziny i 13 minut temu, godzina 05:00 UTC
Prognoza ważna od 04 godzina 06 UTC do 05 godzina 06 UTC
Wiatr 9 kt od wschód
Widzialność 10 km lub więcej
Rozproszone chmury na wysokości 1700 ft
Stopniowe zmiany
od 04 godzina 10 UTC do 04 godzina 12 UTC
Wiatr 5 kt z kierunków zmiennych
Widzialność: 5000 m
Mało chmury na wysokości 1600 ft, Cumulonimbus.
zmętnienie

TAF: WIMM 040500Z 0406/0506 08009KT 9999 SCT017 BECMG 0410/0412 VRB05KT 5000 HZ FEW016CB

Obserwacja i prognoza pogody dla ponad 4000 lotnisk (raport METAR i TAF).

Dostępne stacje oznaczono żółtymi i czerwonymi punktami na mapie.

Najedź kursorem aby zobaczyć nazwę stacji.

Kliknij aby zobaczyć obserwacje i prognozy pogody.

Aby zmienić mapę: kliknij na zielony przycisk z czarnym krzyżykiem, aby powiększyć; na zielony przycisk z myślnikiem, aby pomniejszyć; na zielone strzałki, aby przejść do map sąsiednich.


METAR-TAF: